sensor_id;sensor_type;location;lat;lon;timestamp;temperature;humidity
22674;DHT22;11504;43.334;21.918;2022-10-22T00:04:34;13.5;100.0
22674;DHT22;11504;43.334;21.918;2022-10-22T00:09:11;13.5;100.0
22674;DHT22;11504;43.334;21.918;2022-10-22T00:13:49;13.4;100.0
22674;DHT22;11504;43.334;21.918;2022-10-22T00:18:26;13.4;100.0
22674;DHT22;11504;43.334;21.918;2022-10-22T00:23:03;13.3;100.0
22674;DHT22;11504;43.334;21.918;2022-10-22T00:27:40;13.3;100.0
22674;DHT22;11504;43.334;21.918;2022-10-22T00:32:17;13.2;100.0
22674;DHT22;11504;43.334;21.918;2022-10-22T00:36:54;13.2;100.0
22674;DHT22;11504;43.334;21.918;2022-10-22T00:41:32;13.1;100.0
22674;DHT22;11504;43.334;21.918;2022-10-22T00:46:09;13.1;100.0
22674;DHT22;11504;43.334;21.918;2022-10-22T00:50:48;13.1;100.0
22674;DHT22;11504;43.334;21.918;2022-10-22T00:55:43;13.1;100.0
22674;DHT22;11504;43.334;21.918;2022-10-22T01:00:29;13.1;100.0
22674;DHT22;11504;43.334;21.918;2022-10-22T01:05:08;13.1;100.0
22674;DHT22;11504;43.334;21.918;2022-10-22T01:09:55;13.1;100.0
22674;DHT22;11504;43.334;21.918;2022-10-22T01:15:42;13.0;100.0
22674;DHT22;11504;43.334;21.918;2022-10-22T01:20:57;13.0;100.0
22674;DHT22;11504;43.334;21.918;2022-10-22T01:26:05;13.0;100.0
22674;DHT22;11504;43.334;21.918;2022-10-22T01:31:19;13.0;100.0
22674;DHT22;11504;43.334;21.918;2022-10-22T01:36:15;13.0;100.0
22674;DHT22;11504;43.334;21.918;2022-10-22T01:40:56;13.0;100.0
22674;DHT22;11504;43.334;21.918;2022-10-22T01:45:38;13.0;100.0
22674;DHT22;11504;43.334;21.918;2022-10-22T01:51:06;13.0;100.0
22674;DHT22;11504;43.334;21.918;2022-10-22T01:56:57;13.0;100.0
22674;DHT22;11504;43.334;21.918;2022-10-22T02:02:24;13.1;100.0
22674;DHT22;11504;43.334;21.918;2022-10-22T02:07:40;13.1;100.0
22674;DHT22;11504;43.334;21.918;2022-10-22T02:12:36;13.0;100.0
22674;DHT22;11504;43.334;21.918;2022-10-22T02:17:26;13.0;100.0
22674;DHT22;11504;43.334;21.918;2022-10-22T02:22:14;13.0;100.0
22674;DHT22;11504;43.334;21.918;2022-10-22T02:26:59;13.0;100.0
22674;DHT22;11504;43.334;21.918;2022-10-22T02:32:02;13.0;100.0
22674;DHT22;11504;43.334;21.918;2022-10-22T02:36:56;13.0;100.0
22674;DHT22;11504;43.334;21.918;2022-10-22T02:41:38;13.1;100.0
22674;DHT22;11504;43.334;21.918;2022-10-22T02:46:16;13.1;100.0
22674;DHT22;11504;43.334;21.918;2022-10-22T02:50:52;13.1;100.0
22674;DHT22;11504;43.334;21.918;2022-10-22T02:55:29;13.1;100.0
22674;DHT22;11504;43.334;21.918;2022-10-22T03:00:07;13.1;100.0
22674;DHT22;11504;43.334;21.918;2022-10-22T03:04:49;13.1;100.0
22674;DHT22;11504;43.334;21.918;2022-10-22T03:09:26;13.1;100.0
22674;DHT22;11504;43.334;21.918;2022-10-22T03:14:03;13.0;100.0
22674;DHT22;11504;43.334;21.918;2022-10-22T03:18:40;13.0;100.0
22674;DHT22;11504;43.334;21.918;2022-10-22T03:23:18;13.0;100.0
22674;DHT22;11504;43.334;21.918;2022-10-22T03:28:00;13.0;100.0
22674;DHT22;11504;43.334;21.918;2022-10-22T03:32:49;13.0;100.0
22674;DHT22;11504;43.334;21.918;2022-10-22T03:37:26;13.0;100.0
22674;DHT22;11504;43.334;21.918;2022-10-22T03:42:04;12.9;100.0
22674;DHT22;11504;43.334;21.918;2022-10-22T03:46:44;12.9;100.0
22674;DHT22;11504;43.334;21.918;2022-10-22T03:51:21;12.8;100.0
22674;DHT22;11504;43.334;21.918;2022-10-22T03:56:07;12.8;100.0
22674;DHT22;11504;43.334;21.918;2022-10-22T04:00:47;12.7;100.0
22674;DHT22;11504;43.334;21.918;2022-10-22T04:05:24;12.7;100.0
22674;DHT22;11504;43.334;21.918;2022-10-22T04:10:01;12.7;100.0
22674;DHT22;11504;43.334;21.918;2022-10-22T04:14:40;12.6;100.0
22674;DHT22;11504;43.334;21.918;2022-10-22T04:19:17;12.6;100.0
22674;DHT22;11504;43.334;21.918;2022-10-22T04:23:53;12.6;100.0
22674;DHT22;11504;43.334;21.918;2022-10-22T04:28:30;12.6;100.0
22674;DHT22;11504;43.334;21.918;2022-10-22T04:33:08;12.6;100.0
22674;DHT22;11504;43.334;21.918;2022-10-22T04:37:44;12.6;100.0
22674;DHT22;11504;43.334;21.918;2022-10-22T04:42:21;12.6;100.0
22674;DHT22;11504;43.334;21.918;2022-10-22T04:46:58;12.6;100.0
22674;DHT22;11504;43.334;21.918;2022-10-22T04:51:35;12.7;100.0
22674;DHT22;11504;43.334;21.918;2022-10-22T04:56:13;12.7;100.0
22674;DHT22;11504;43.334;21.918;2022-10-22T05:00:58;12.8;100.0
22674;DHT22;11504;43.334;21.918;2022-10-22T05:05:35;12.8;100.0
22674;DHT22;11504;43.334;21.918;2022-10-22T05:10:12;12.8;100.0
22674;DHT22;11504;43.334;21.918;2022-10-22T05:14:49;12.8;100.0
22674;DHT22;11504;43.334;21.918;2022-10-22T05:19:27;12.8;100.0
22674;DHT22;11504;43.334;21.918;2022-10-22T05:24:07;12.8;100.0
22674;DHT22;11504;43.334;21.918;2022-10-22T05:28:45;12.8;100.0
22674;DHT22;11504;43.334;21.918;2022-10-22T05:33:23;13.0;100.0
22674;DHT22;11504;43.334;21.918;2022-10-22T05:38:04;13.0;100.0
22674;DHT22;11504;43.334;21.918;2022-10-22T05:42:40;13.3;100.0
22674;DHT22;11504;43.334;21.918;2022-10-22T05:47:17;13.3;100.0
22674;DHT22;11504;43.334;21.918;2022-10-22T05:51:54;13.6;100.0
22674;DHT22;11504;43.334;21.918;2022-10-22T05:56:31;13.6;100.0
22674;DHT22;11504;43.334;21.918;2022-10-22T06:01:13;13.8;100.0
22674;DHT22;11504;43.334;21.918;2022-10-22T06:06:01;13.8;100.0
22674;DHT22;11504;43.334;21.918;2022-10-22T06:11:09;13.8;100.0
22674;DHT22;11504;43.334;21.918;2022-10-22T06:15:47;13.8;100.0
22674;DHT22;11504;43.334;21.918;2022-10-22T06:20:24;13.8;100.0
22674;DHT22;11504;43.334;21.918;2022-10-22T06:25:02;13.8;100.0
22674;DHT22;11504;43.334;21.918;2022-10-22T06:29:44;13.8;100.0
22674;DHT22;11504;43.334;21.918;2022-10-22T06:34:22;14.0;100.0
22674;DHT22;11504;43.334;21.918;2022-10-22T06:39:00;14.0;100.0
22674;DHT22;11504;43.334;21.918;2022-10-22T06:43:41;14.3;100.0
22674;DHT22;11504;43.334;21.918;2022-10-22T06:48:21;14.3;100.0
22674;DHT22;11504;43.334;21.918;2022-10-22T06:52:57;14.6;100.0
22674;DHT22;11504;43.334;21.918;2022-10-22T06:57:34;14.6;100.0
22674;DHT22;11504;43.334;21.918;2022-10-22T07:02:10;14.8;100.0
22674;DHT22;11504;43.334;21.918;2022-10-22T07:06:47;14.8;100.0
22674;DHT22;11504;43.334;21.918;2022-10-22T07:11:25;15.8;100.0
22674;DHT22;11504;43.334;21.918;2022-10-22T07:16:19;15.8;100.0
22674;DHT22;11504;43.334;21.918;2022-10-22T07:20:57;16.9;100.0
22674;DHT22;11504;43.334;21.918;2022-10-22T07:25:35;16.9;100.0
22674;DHT22;11504;43.334;21.918;2022-10-22T07:30:12;16.9;100.0
22674;DHT22;11504;43.334;21.918;2022-10-22T07:34:49;18.1;100.0
22674;DHT22;11504;43.334;21.918;2022-10-22T07:39:27;18.1;100.0
22674;DHT22;11504;43.334;21.918;2022-10-22T07:44:03;19.3;100.0
22674;DHT22;11504;43.334;21.918;2022-10-22T07:48:40;19.3;100.0
22674;DHT22;11504;43.334;21.918;2022-10-22T07:53:17;19.9;100.0
22674;DHT22;11504;43.334;21.918;2022-10-22T07:57:55;19.9;100.0
22674;DHT22;11504;43.334;21.918;2022-10-22T08:02:32;20.5;100.0
22674;DHT22;11504;43.334;21.918;2022-10-22T08:07:08;20.5;100.0
22674;DHT22;11504;43.334;21.918;2022-10-22T08:11:44;20.0;100.0
22674;DHT22;11504;43.334;21.918;2022-10-22T08:16:21;20.0;100.0
22674;DHT22;11504;43.334;21.918;2022-10-22T08:20:57;19.5;100.0
22674;DHT22;11504;43.334;21.918;2022-10-22T08:25:34;19.5;100.0
22674;DHT22;11504;43.334;21.918;2022-10-22T08:30:12;19.5;100.0
22674;DHT22;11504;43.334;21.918;2022-10-22T08:34:51;21.1;100.0
22674;DHT22;11504;43.334;21.918;2022-10-22T08:39:27;21.1;100.0
22674;DHT22;11504;43.334;21.918;2022-10-22T08:44:21;22.7;100.0
22674;DHT22;11504;43.334;21.918;2022-10-22T08:49:52;22.7;100.0
22674;DHT22;11504;43.334;21.918;2022-10-22T08:54:36;23.1;100.0
22674;DHT22;11504;43.334;21.918;2022-10-22T08:59:40;23.1;100.0
22674;DHT22;11504;43.334;21.918;2022-10-22T09:04:57;23.5;100.0
22674;DHT22;11504;43.334;21.918;2022-10-22T09:10:42;23.5;100.0
22674;DHT22;11504;43.334;21.918;2022-10-22T09:16:00;24.3;100.0
22674;DHT22;11504;43.334;21.918;2022-10-22T09:21:17;25.1;100.0
22674;DHT22;11504;43.334;21.918;2022-10-22T09:26:26;25.1;100.0
22674;DHT22;11504;43.334;21.918;2022-10-22T09:31:09;25.7;100.0
22674;DHT22;11504;43.334;21.918;2022-10-22T09:35:51;25.7;100.0
22674;DHT22;11504;43.334;21.918;2022-10-22T09:40:43;25.7;100.0
22674;DHT22;11504;43.334;21.918;2022-10-22T09:45:34;26.3;100.0
22674;DHT22;11504;43.334;21.918;2022-10-22T09:50:20;26.3;100.0
22674;DHT22;11504;43.334;21.918;2022-10-22T09:55:18;26.4;100.0
22674;DHT22;11504;43.334;21.918;2022-10-22T09:59:58;26.4;100.0
22674;DHT22;11504;43.334;21.918;2022-10-22T10:04:39;26.5;100.0
22674;DHT22;11504;43.334;21.918;2022-10-22T10:09:30;26.5;100.0
22674;DHT22;11504;43.334;21.918;2022-10-22T10:14:14;26.4;100.0
22674;DHT22;11504;43.334;21.918;2022-10-22T10:19:34;26.4;100.0
22674;DHT22;11504;43.334;21.918;2022-10-22T10:25:03;26.2;100.0
22674;DHT22;11504;43.334;21.918;2022-10-22T10:30:24;26.2;100.0
22674;DHT22;11504;43.334;21.918;2022-10-22T10:35:13;26.0;100.0
22674;DHT22;11504;43.334;21.918;2022-10-22T10:40:22;26.0;100.0
22674;DHT22;11504;43.334;21.918;2022-10-22T10:45:23;25.7;100.0
22674;DHT22;11504;43.334;21.918;2022-10-22T10:50:25;25.7;100.0
22674;DHT22;11504;43.334;21.918;2022-10-22T10:55:29;25.5;100.0
22674;DHT22;11504;43.334;21.918;2022-10-22T11:00:42;25.5;100.0
22674;DHT22;11504;43.334;21.918;2022-10-22T11:05:48;25.4;100.0
22674;DHT22;11504;43.334;21.918;2022-10-22T11:10:40;25.4;100.0
22674;DHT22;11504;43.334;21.918;2022-10-22T11:15:40;25.1;100.0
22674;DHT22;11504;43.334;21.918;2022-10-22T11:21:11;25.1;100.0
22674;DHT22;11504;43.334;21.918;2022-10-22T11:26:38;24.8;100.0
22674;DHT22;11504;43.334;21.918;2022-10-22T11:31:39;24.7;100.0
22674;DHT22;11504;43.334;21.918;2022-10-22T11:36:21;24.7;100.0
22674;DHT22;11504;43.334;21.918;2022-10-22T11:41:10;24.6;100.0
22674;DHT22;11504;43.334;21.918;2022-10-22T11:46:24;24.6;100.0
22674;DHT22;11504;43.334;21.918;2022-10-22T11:51:35;24.6;100.0
22674;DHT22;11504;43.334;21.918;2022-10-22T11:56:23;24.6;100.0
22674;DHT22;11504;43.334;21.918;2022-10-22T12:01:21;24.7;100.0
22674;DHT22;11504;43.334;21.918;2022-10-22T12:06:19;24.7;100.0
22674;DHT22;11504;43.334;21.918;2022-10-22T12:11:05;24.7;100.0
22674;DHT22;11504;43.334;21.918;2022-10-22T12:16:02;24.7;100.0
22674;DHT22;11504;43.334;21.918;2022-10-22T12:20:41;24.7;100.0
22674;DHT22;11504;43.334;21.918;2022-10-22T12:35:23;25.0;100.0
22674;DHT22;11504;43.334;21.918;2022-10-22T12:40:09;25.0;100.0
22674;DHT22;11504;43.334;21.918;2022-10-22T12:44:56;25.0;100.0
22674;DHT22;11504;43.334;21.918;2022-10-22T12:49:46;25.0;100.0
22674;DHT22;11504;43.334;21.918;2022-10-22T12:54:33;25.0;100.0
22674;DHT22;11504;43.334;21.918;2022-10-22T12:59:28;25.0;100.0
22674;DHT22;11504;43.334;21.918;2022-10-22T13:04:36;25.0;100.0
22674;DHT22;11504;43.334;21.918;2022-10-22T13:09:24;25.0;100.0
22674;DHT22;11504;43.334;21.918;2022-10-22T13:14:19;24.8;100.0
22674;DHT22;11504;43.334;21.918;2022-10-22T13:18:55;24.8;100.0
22674;DHT22;11504;43.334;21.918;2022-10-22T13:23:33;24.5;100.0
22674;DHT22;11504;43.334;21.918;2022-10-22T13:28:21;24.5;100.0
22674;DHT22;11504;43.334;21.918;2022-10-22T13:33:05;24.4;100.0
22674;DHT22;11504;43.334;21.918;2022-10-22T13:37:58;24.4;100.0
22674;DHT22;11504;43.334;21.918;2022-10-22T13:42:35;24.3;100.0
22674;DHT22;11504;43.334;21.918;2022-10-22T13:47:28;24.3;100.0
22674;DHT22;11504;43.334;21.918;2022-10-22T13:52:35;24.2;100.0
22674;DHT22;11504;43.334;21.918;2022-10-22T13:57:18;24.2;100.0
22674;DHT22;11504;43.334;21.918;2022-10-22T14:01:55;24.1;100.0
22674;DHT22;11504;43.334;21.918;2022-10-22T14:06:33;24.1;100.0
22674;DHT22;11504;43.334;21.918;2022-10-22T14:11:12;24.0;100.0
22674;DHT22;11504;43.334;21.918;2022-10-22T14:15:51;24.0;100.0
22674;DHT22;11504;43.334;21.918;2022-10-22T14:20:38;24.0;100.0
22674;DHT22;11504;43.334;21.918;2022-10-22T14:25:24;23.8;100.0
22674;DHT22;11504;43.334;21.918;2022-10-22T14:30:04;23.8;100.0
22674;DHT22;11504;43.334;21.918;2022-10-22T14:34:49;23.7;100.0
22674;DHT22;11504;43.334;21.918;2022-10-22T14:39:26;23.7;100.0
22674;DHT22;11504;43.334;21.918;2022-10-22T14:44:03;23.6;100.0
22674;DHT22;11504;43.334;21.918;2022-10-22T14:48:41;23.6;100.0
22674;DHT22;11504;43.334;21.918;2022-10-22T14:53:17;23.5;100.0
22674;DHT22;11504;43.334;21.918;2022-10-22T14:57:54;23.5;100.0
22674;DHT22;11504;43.334;21.918;2022-10-22T15:02:31;23.3;100.0
22674;DHT22;11504;43.334;21.918;2022-10-22T15:07:07;23.3;100.0
22674;DHT22;11504;43.334;21.918;2022-10-22T15:11:44;23.2;100.0
22674;DHT22;11504;43.334;21.918;2022-10-22T15:16:21;23.2;100.0
22674;DHT22;11504;43.334;21.918;2022-10-22T15:21:06;23.2;100.0
22674;DHT22;11504;43.334;21.918;2022-10-22T15:25:53;23.0;100.0
22674;DHT22;11504;43.334;21.918;2022-10-22T15:30:31;23.0;100.0
22674;DHT22;11504;43.334;21.918;2022-10-22T15:35:08;22.8;100.0
22674;DHT22;11504;43.334;21.918;2022-10-22T15:39:45;22.8;100.0
22674;DHT22;11504;43.334;21.918;2022-10-22T15:44:29;22.7;100.0
22674;DHT22;11504;43.334;21.918;2022-10-22T15:49:06;22.7;100.0
22674;DHT22;11504;43.334;21.918;2022-10-22T15:53:52;22.5;100.0
22674;DHT22;11504;43.334;21.918;2022-10-22T15:58:32;22.5;100.0
22674;DHT22;11504;43.334;21.918;2022-10-22T16:03:08;22.3;100.0
22674;DHT22;11504;43.334;21.918;2022-10-22T16:07:45;22.3;100.0
22674;DHT22;11504;43.334;21.918;2022-10-22T16:12:21;22.0;100.0
22674;DHT22;11504;43.334;21.918;2022-10-22T16:16:58;22.0;100.0
22674;DHT22;11504;43.334;21.918;2022-10-22T16:21:35;21.8;100.0
22674;DHT22;11504;43.334;21.918;2022-10-22T16:26:16;21.8;100.0
22674;DHT22;11504;43.334;21.918;2022-10-22T16:30:54;21.8;100.0
22674;DHT22;11504;43.334;21.918;2022-10-22T16:35:32;21.5;100.0
22674;DHT22;11504;43.334;21.918;2022-10-22T16:40:12;21.5;100.0
22674;DHT22;11504;43.334;21.918;2022-10-22T16:44:48;21.1;100.0
22674;DHT22;11504;43.334;21.918;2022-10-22T16:49:25;21.1;100.0
22674;DHT22;11504;43.334;21.918;2022-10-22T16:54:03;20.8;100.0
22674;DHT22;11504;43.334;21.918;2022-10-22T16:58:49;20.8;100.0
22674;DHT22;11504;43.334;21.918;2022-10-22T17:03:30;20.6;100.0
22674;DHT22;11504;43.334;21.918;2022-10-22T17:08:07;20.6;100.0
22674;DHT22;11504;43.334;21.918;2022-10-22T17:12:47;20.5;100.0
22674;DHT22;11504;43.334;21.918;2022-10-22T17:17:24;20.5;100.0
22674;DHT22;11504;43.334;21.918;2022-10-22T17:22:01;20.3;100.0
22674;DHT22;11504;43.334;21.918;2022-10-22T17:26:38;20.3;100.0
22674;DHT22;11504;43.334;21.918;2022-10-22T17:31:24;20.0;100.0
22674;DHT22;11504;43.334;21.918;2022-10-22T17:36:09;20.0;100.0
22674;DHT22;11504;43.334;21.918;2022-10-22T17:40:46;20.0;100.0
22674;DHT22;11504;43.334;21.918;2022-10-22T17:45:23;19.7;100.0
22674;DHT22;11504;43.334;21.918;2022-10-22T17:50:00;19.7;100.0
22674;DHT22;11504;43.334;21.918;2022-10-22T17:54:37;19.4;100.0
22674;DHT22;11504;43.334;21.918;2022-10-22T17:59:16;19.4;100.0
22674;DHT22;11504;43.334;21.918;2022-10-22T18:04:01;19.1;100.0
22674;DHT22;11504;43.334;21.918;2022-10-22T18:08:44;19.1;100.0
22674;DHT22;11504;43.334;21.918;2022-10-22T18:13:21;19.0;100.0
22674;DHT22;11504;43.334;21.918;2022-10-22T18:17:57;19.0;100.0
22674;DHT22;11504;43.334;21.918;2022-10-22T18:22:35;18.8;100.0
22674;DHT22;11504;43.334;21.918;2022-10-22T18:27:12;18.8;100.0
22674;DHT22;11504;43.334;21.918;2022-10-22T18:31:49;18.6;100.0
22674;DHT22;11504;43.334;21.918;2022-10-22T18:36:27;18.6;100.0
22674;DHT22;11504;43.334;21.918;2022-10-22T18:41:08;18.6;100.0
22674;DHT22;11504;43.334;21.918;2022-10-22T18:45:48;18.5;100.0
22674;DHT22;11504;43.334;21.918;2022-10-22T18:50:24;18.5;100.0
22674;DHT22;11504;43.334;21.918;2022-10-22T18:55:01;18.4;100.0
22674;DHT22;11504;43.334;21.918;2022-10-22T18:59:39;18.4;100.0
22674;DHT22;11504;43.334;21.918;2022-10-22T19:04:16;18.2;100.0
22674;DHT22;11504;43.334;21.918;2022-10-22T19:08:52;18.2;100.0
22674;DHT22;11504;43.334;21.918;2022-10-22T19:13:29;18.1;100.0
22674;DHT22;11504;43.334;21.918;2022-10-22T19:18:07;18.1;100.0
22674;DHT22;11504;43.334;21.918;2022-10-22T19:22:45;18.0;100.0
22674;DHT22;11504;43.334;21.918;2022-10-22T19:27:24;18.0;100.0
22674;DHT22;11504;43.334;21.918;2022-10-22T19:32:01;17.8;100.0
22674;DHT22;11504;43.334;21.918;2022-10-22T19:36:38;17.8;100.0
22674;DHT22;11504;43.334;21.918;2022-10-22T19:41:23;17.8;100.0
22674;DHT22;11504;43.334;21.918;2022-10-22T19:46:09;17.6;100.0
22674;DHT22;11504;43.334;21.918;2022-10-22T19:50:48;17.6;100.0
22674;DHT22;11504;43.334;21.918;2022-10-22T19:55:25;17.5;100.0
22674;DHT22;11504;43.334;21.918;2022-10-22T20:00:06;17.5;100.0
22674;DHT22;11504;43.334;21.918;2022-10-22T20:04:46;17.4;100.0
22674;DHT22;11504;43.334;21.918;2022-10-22T20:09:23;17.4;100.0
22674;DHT22;11504;43.334;21.918;2022-10-22T20:14:00;17.3;100.0
22674;DHT22;11504;43.334;21.918;2022-10-22T20:18:36;17.3;100.0
22674;DHT22;11504;43.334;21.918;2022-10-22T20:23:14;17.2;100.0
22674;DHT22;11504;43.334;21.918;2022-10-22T20:27:51;17.2;100.0
22674;DHT22;11504;43.334;21.918;2022-10-22T20:32:27;17.1;100.0
22674;DHT22;11504;43.334;21.918;2022-10-22T20:37:04;17.1;100.0
22674;DHT22;11504;43.334;21.918;2022-10-22T20:41:41;17.0;100.0
22674;DHT22;11504;43.334;21.918;2022-10-22T20:46:25;17.0;100.0
22674;DHT22;11504;43.334;21.918;2022-10-22T20:51:06;17.0;100.0
22674;DHT22;11504;43.334;21.918;2022-10-22T20:55:43;16.8;100.0
22674;DHT22;11504;43.334;21.918;2022-10-22T21:00:20;16.8;100.0
22674;DHT22;11504;43.334;21.918;2022-10-22T21:04:57;16.7;100.0
22674;DHT22;11504;43.334;21.918;2022-10-22T21:09:33;16.7;100.0
22674;DHT22;11504;43.334;21.918;2022-10-22T21:14:17;16.6;100.0
22674;DHT22;11504;43.334;21.918;2022-10-22T21:18:54;16.6;100.0
22674;DHT22;11504;43.334;21.918;2022-10-22T21:23:31;16.6;100.0
22674;DHT22;11504;43.334;21.918;2022-10-22T21:28:08;16.6;100.0
22674;DHT22;11504;43.334;21.918;2022-10-22T21:32:44;16.5;100.0
22674;DHT22;11504;43.334;21.918;2022-10-22T21:37:21;16.5;100.0
22674;DHT22;11504;43.334;21.918;2022-10-22T21:41:58;16.4;100.0
22674;DHT22;11504;43.334;21.918;2022-10-22T21:46:34;16.4;100.0
22674;DHT22;11504;43.334;21.918;2022-10-22T21:51:18;16.4;100.0
22674;DHT22;11504;43.334;21.918;2022-10-22T21:55:58;16.4;100.0
22674;DHT22;11504;43.334;21.918;2022-10-22T22:00:35;16.4;100.0
22674;DHT22;11504;43.334;21.918;2022-10-22T22:05:12;16.3;100.0
22674;DHT22;11504;43.334;21.918;2022-10-22T22:09:50;16.3;100.0
22674;DHT22;11504;43.334;21.918;2022-10-22T22:14:27;16.2;100.0
22674;DHT22;11504;43.334;21.918;2022-10-22T22:19:09;16.2;100.0
22674;DHT22;11504;43.334;21.918;2022-10-22T22:23:50;16.2;100.0
22674;DHT22;11504;43.334;21.918;2022-10-22T22:28:32;16.2;100.0
22674;DHT22;11504;43.334;21.918;2022-10-22T22:33:11;16.1;100.0
22674;DHT22;11504;43.334;21.918;2022-10-22T22:37:48;16.1;100.0
22674;DHT22;11504;43.334;21.918;2022-10-22T22:42:27;16.0;100.0
22674;DHT22;11504;43.334;21.918;2022-10-22T22:47:04;16.0;100.0
22674;DHT22;11504;43.334;21.918;2022-10-22T22:51:41;15.9;100.0
22674;DHT22;11504;43.334;21.918;2022-10-22T22:56:25;15.9;100.0
22674;DHT22;11504;43.334;21.918;2022-10-22T23:01:17;15.9;100.0
22674;DHT22;11504;43.334;21.918;2022-10-22T23:05:56;15.8;100.0
22674;DHT22;11504;43.334;21.918;2022-10-22T23:10:33;15.8;100.0
22674;DHT22;11504;43.334;21.918;2022-10-22T23:15:11;15.8;100.0
22674;DHT22;11504;43.334;21.918;2022-10-22T23:19:47;15.8;100.0
22674;DHT22;11504;43.334;21.918;2022-10-22T23:24:29;15.8;100.0
22674;DHT22;11504;43.334;21.918;2022-10-22T23:29:14;15.8;100.0
22674;DHT22;11504;43.334;21.918;2022-10-22T23:33:57;15.8;100.0
22674;DHT22;11504;43.334;21.918;2022-10-22T23:38:39;15.8;100.0
22674;DHT22;11504;43.334;21.918;2022-10-22T23:43:16;15.9;100.0
22674;DHT22;11504;43.334;21.918;2022-10-22T23:47:53;15.9;100.0
22674;DHT22;11504;43.334;21.918;2022-10-22T23:52:29;16.2;100.0
22674;DHT22;11504;43.334;21.918;2022-10-22T23:57:06;16.2;100.0
